Thunder radar more information blitzortung!


Radar de pluja more information rain snow radar


Visita la nostra xarxa de llocs de meteo:

Template documentation
and downloads

And another site



No particular awareness of the weather is required.    There are no Weather-warnings

Pagina Historial Weather Underground text

Diari Resum Octubre 30, 2017 Unitats:  Mètric    Imperial   Tant
« Previous Dia
SegĂźent Dia »
Diari Setmana Mensual Anual Personalitzada
  Maxima: Minima: Media:
Temperatura: -17.8 °C -12.4 °C -9.2 °C
Punt de rosada: -17.8 °C -15.4 °C -12.7 °C
Humitat: Humidity % 55 % 66 %
Wind Speed: 0 km/h 0 km/h 7.6 km/h
RĂ fegues de vent: 0 km/h - -
Vent:- - East
Pression baro: 0 hPa 34395 hPa -
Precipitacions: 0 mm    
Historical Graphs
 
 
Dades de taula per Octubre 30, 2017
Temps Temperatura Punt de rosada Pression baro Vent Wind Speed RĂ fegues de vent Humitat Rainfall Rate (Hourly)
-17.8 °C -17.8 °C 0 hPa Calm     Humidity % 0 mm
00:01 -10.5 °C -15.3 °C 34428.8 hPa Calm     56 % 0 mm
00:06 -10.5 °C -15.4 °C 34428.8 hPa WNW 3.1 km/h 3.1 km/h 55 % 0 mm
01:35 -12.4 °C -15 °C 34462.7 hPa Calm   2.6 km/h 73 % 0 mm
01:45 -12.2 °C -14.8 °C 34462.7 hPa NW 2.6 km/h 2.6 km/h 73 % 0 mm
01:55 -11.9 °C -14.5 °C 34428.8 hPa North 2.6 km/h 10.3 km/h 73 % 0 mm
02:05 -11.7 °C -14.3 °C 34428.8 hPa NE 2.6 km/h 5.1 km/h 73 % 0 mm
02:15 -11.6 °C -14.3 °C 34462.7 hPa NE 7.7 km/h 10.3 km/h 72 % 0 mm
02:25 -11.3 °C -14.1 °C 34462.7 hPa NE 5.1 km/h 7.7 km/h 72 % 0 mm
02:35 -11.1 °C -13.9 °C 34462.7 hPa NE 7.7 km/h 10.3 km/h 71 % 0 mm
02:45 -11 °C -13.8 °C 34462.7 hPa NE 12.9 km/h 15.6 km/h 71 % 0 mm
02:55 -10.7 °C -13.7 °C 34462.7 hPa NNE 12.9 km/h 15.6 km/h 70 % 0 mm
03:05 -10.7 °C -13.7 °C 34462.7 hPa NE 7.7 km/h 15.6 km/h 70 % 0 mm
03:15 -10.5 °C -13.6 °C 34462.7 hPa NE 7.7 km/h 15.6 km/h 69 % 0 mm
03:25 -10.4 °C -13.5 °C 34462.7 hPa NNE 7.7 km/h 15.6 km/h 69 % 0 mm
03:35 -10.2 °C -13.4 °C 34462.7 hPa NNE 12.9 km/h 12.9 km/h 68 % 0 mm
09:45 -10.1 °C -13.3 °C 34462.7 hPa ENE 11.9 km/h 11.9 km/h 68 % 0 mm
09:50 -10.1 °C -13.3 °C 34462.7 hPa NE 15.3 km/h 15.3 km/h 68 % 0 mm
09:55 -10 °C -13.4 °C 34462.7 hPa NNE 11.9 km/h 11.9 km/h 67 % 0 mm
10:00 -10 °C -13.4 °C 34462.7 hPa NE 20.9 km/h 20.9 km/h 67 % 0 mm
10:05 -10.1 °C -13.4 °C 34462.7 hPa ENE 17.9 km/h 17.9 km/h 67 % 0 mm
10:10 -9.8 °C -13.2 °C 34462.7 hPa East 6.8 km/h 8 km/h 67 % 0 mm
10:15 -9.8 °C -13.3 °C 34462.7 hPa NNE 17.9 km/h 17.9 km/h 66 % 0 mm
10:20 -9.8 °C -13.3 °C 34462.7 hPa ENE 17.9 km/h 17.9 km/h 66 % 0 mm
10:25 -9.9 °C -13.4 °C 34462.7 hPa North 17.9 km/h 17.9 km/h 66 % 0 mm
10:30 -9.7 °C -13.2 °C 34462.7 hPa NNE 10.3 km/h 10.3 km/h 66 % 0 mm
10:35 -9.7 °C -13.3 °C 34462.7 hPa ENE 17.9 km/h 17.9 km/h 65 % 0 mm
10:40 -9.5 °C -13 °C 34462.7 hPa NNE 10.3 km/h 10.3 km/h 66 % 0 mm
10:45 -9.7 °C -13.3 °C 34462.7 hPa ENE 17.9 km/h 17.9 km/h 65 % 0 mm
10:55 -9.3 °C -12.9 °C 34462.7 hPa NE 9 km/h 9 km/h 65 % 0 mm
11:00 -9.1 °C -12.7 °C 34462.7 hPa NNW 9 km/h 9 km/h 65 % 0 mm
11:05 -9 °C -12.7 °C 34462.7 hPa East 9 km/h 9 km/h 65 % 0 mm
11:10 -9 °C -12.8 °C 34428.8 hPa North 15 km/h 15 km/h 64 % 0 mm
11:15 -8.9 °C -12.7 °C 34428.8 hPa ENE 6 km/h 6 km/h 64 % 0 mm
11:20 -8.9 °C -12.7 °C 34428.8 hPa NNE 11.9 km/h 11.9 km/h 64 % 0 mm
11:25 -8.9 °C -12.7 °C 34462.7 hPa WNW 11.9 km/h 11.9 km/h 64 % 0 mm
11:30 -8.9 °C -12.8 °C 34462.7 hPa ENE 10.3 km/h 10.3 km/h 63 % 0 mm
11:35 -8.9 °C -12.9 °C 34462.7 hPa ENE 15 km/h 15 km/h 63 % 0 mm
11:40 -9.1 °C -12.9 °C 34462.7 hPa ENE 15 km/h 15 km/h 63 % 0 mm
11:45 -8.9 °C -12.9 °C 34462.7 hPa NE 16.6 km/h 16.6 km/h 63 % 0 mm
11:50 -9 °C -12.9 °C 34462.7 hPa NE 15.3 km/h 15.3 km/h 63 % 0 mm
11:55 -9 °C -12.9 °C 34462.7 hPa ESE 19.6 km/h 19.6 km/h 63 % 0 mm
12:00 -9 °C -12.9 °C 34462.7 hPa North 17.9 km/h 17.9 km/h 63 % 0 mm
12:05 -8.9 °C -12.9 °C 34462.7 hPa ENE 17.9 km/h 17.9 km/h 63 % 0 mm
12:10 -8.7 °C -12.6 °C 34462.7 hPa ENE 14 km/h 14 km/h 63 % 0 mm
12:15 -8.5 °C -12.4 °C 34462.7 hPa NNE 9 km/h 9 km/h 63 % 0 mm
12:20 -8.5 °C -12.4 °C 34462.7 hPa NE 9 km/h 9 km/h 63 % 0 mm
12:25 -8.4 °C -12.4 °C 34462.7 hPa NE 8 km/h 8 km/h 62 % 0 mm
12:30 -8.4 °C -12.4 °C 34462.7 hPa ENE 15 km/h 15 km/h 62 % 0 mm
12:35 -8.4 °C -12.5 °C 34462.7 hPa ENE 15 km/h 15 km/h 62 % 0 mm
12:40 -8.6 °C -12.7 °C 34462.7 hPa NNW 17.9 km/h 17.9 km/h 61 % 0 mm
12:45 -8.6 °C -12.8 °C 34462.7 hPa NNE 26.9 km/h 26.9 km/h 61 % 0 mm
12:50 -8.4 °C -12.7 °C 34462.7 hPa NNE 16.6 km/h 16.6 km/h 61 % 0 mm
12:55 -8.6 °C -12.8 °C 34462.7 hPa North 20.9 km/h 20.9 km/h 61 % 0 mm
13:00 -8.5 °C -12.7 °C 34462.7 hPa East 23.8 km/h 23.8 km/h 61 % 0 mm
13:05 -8.5 °C -12.7 °C 34462.7 hPa NW 15 km/h 15.6 km/h 61 % 0 mm
13:10 -8.6 °C -12.7 °C 34462.7 hPa ENE 26.9 km/h 26.9 km/h 61 % 0 mm
13:15 -8.6 °C -12.9 °C 34462.7 hPa North 17.9 km/h 17.9 km/h 60 % 0 mm
13:20 -8.3 °C -12.7 °C 34462.7 hPa NNW 11.9 km/h 11.9 km/h 60 % 0 mm
13:30 -8.3 °C -12.8 °C 34428.8 hPa North 17.9 km/h 17.9 km/h 59 % 0 mm
13:35 -8.2 °C -12.6 °C 34428.8 hPa NNE 9 km/h 9 km/h 60 % 0 mm
13:40 -8.2 °C -12.6 °C 34428.8 hPa ENE 26.4 km/h 26.4 km/h 60 % 0 mm
13:42 -8.3 °C -12.8 °C 34428.8 hPa NE 26.9 km/h 26.9 km/h 59 % 0 mm
13:47 -8.2 °C -12.7 °C 34428.8 hPa ENE 11.9 km/h 11.9 km/h 59 % 0 mm
13:52 -8.1 °C -12.6 °C 34395 hPa NNE 12.7 km/h 12.7 km/h 59 % 0 mm
13:57 -8.1 °C -12.6 °C 34395 hPa NNE 11.9 km/h 11.9 km/h 59 % 0 mm
14:02 -8.1 °C -12.6 °C 34395 hPa NNE 11.9 km/h 11.9 km/h 59 % 0 mm
14:07 -8 °C -12.5 °C 34428.8 hPa NNE 11.9 km/h 11.9 km/h 59 % 0 mm
14:12 -8.1 °C -12.7 °C 34428.8 hPa ENE 20.9 km/h 20.9 km/h 58 % 0 mm
14:17 -8 °C -12.7 °C 34428.8 hPa ENE 15 km/h 15 km/h 58 % 0 mm
14:22 -7.9 °C -12.6 °C 34395 hPa NNE 15 km/h 15 km/h 58 % 0 mm
14:27 -7.9 °C -12.6 °C 34395 hPa NNE 15 km/h 15 km/h 58 % 0 mm
14:32 -7.8 °C -12.5 °C 34395 hPa NNE 9 km/h 9 km/h 58 % 0 mm
14:37 -7.8 °C -12.4 °C 34395 hPa ENE 15 km/h 15 km/h 58 % 0 mm
14:42 -7.8 °C -12.4 °C 34395 hPa NE 14 km/h 14 km/h 58 % 0 mm
14:47 -7.7 °C -12.4 °C 34395 hPa NNE 11.9 km/h 11.9 km/h 58 % 0 mm
14:52 -7.7 °C -12.6 °C 34395 hPa NNE 14 km/h 14 km/h 57 % 0 mm
14:57 -7.7 °C -12.6 °C 34395 hPa NE 17.9 km/h 17.9 km/h 57 % 0 mm
15:02 -7.8 °C -12.6 °C 34395 hPa North 11.9 km/h 11.9 km/h 57 % 0 mm
15:07 -7.7 °C -12.6 °C 34395 hPa NNE 11.9 km/h 11.9 km/h 57 % 0 mm
15:12 -7.7 °C -12.6 °C 34395 hPa West 15 km/h 15 km/h 57 % 0 mm
15:17 -7.7 °C -12.4 °C 34395 hPa North 15 km/h 15 km/h 57 % 0 mm
15:22 -7.7 °C -12.4 °C 34395 hPa NW 6.8 km/h 6.8 km/h 57 % 0 mm
15:27 -7.6 °C -12.4 °C 34395 hPa ENE 11.9 km/h 11.9 km/h 57 % 0 mm
15:32 -7.6 °C -12.4 °C 34395 hPa NNE 10.3 km/h 10.3 km/h 57 % 0 mm
15:37 -7.6 °C -12.4 °C 34395 hPa NNE 9 km/h 9 km/h 57 % 0 mm
15:42 -7.6 °C -12.4 °C 34395 hPa NNE 6 km/h 6 km/h 57 % 0 mm
15:47 -7.5 °C -12.3 °C 34395 hPa ESE 9 km/h 9 km/h 57 % 0 mm
15:52 -7.5 °C -12.3 °C 34395 hPa ENE 9 km/h 9 km/h 57 % 0 mm
15:57 -7.6 °C -12.4 °C 34395 hPa NE 11.1 km/h 11.1 km/h 57 % 0 mm
16:02 -7.6 °C -12.6 °C 34395 hPa North 9 km/h 9 km/h 56 % 0 mm
16:07 -7.6 °C -12.6 °C 34395 hPa NNE 9 km/h 9 km/h 56 % 0 mm
16:12 -7.5 °C -12.3 °C 34395 hPa NW 3.7 km/h 3.7 km/h 57 % 0 mm
16:17 -7.6 °C -12.6 °C 34395 hPa NE 11.9 km/h 11.9 km/h 56 % 0 mm
16:22 -7.6 °C -12.4 °C 34428.8 hPa NNE 6 km/h 6 km/h 57 % 0 mm
16:27 -7.6 °C -12.6 °C 34428.8 hPa ENE 7.6 km/h 7.6 km/h 56 % 0 mm
16:32 -7.6 °C -12.6 °C 34428.8 hPa ENE 9 km/h 9 km/h 56 % 0 mm
16:37 -7.7 °C -12.4 °C 34395 hPa NE 9 km/h 9 km/h 57 % 0 mm
16:42 -7.7 °C -12.4 °C 34395 hPa NNE 8.5 km/h 8.5 km/h 57 % 0 mm
16:52 -7.7 °C -12.6 °C 34428.8 hPa East 11.9 km/h 11.9 km/h 57 % 0 mm
16:57 -7.8 °C -12.4 °C 34428.8 hPa ENE 9 km/h 9 km/h 58 % 0 mm
17:02 -7.9 °C -12.4 °C 34428.8 hPa SE 15 km/h 15 km/h 59 % 0 mm
17:07 -8 °C -12.4 °C 34428.8 hPa ESE 12.7 km/h 12.7 km/h 60 % 0 mm
17:12 -8 °C -12.2 °C 34428.8 hPa SE 15 km/h 15 km/h 61 % 0 mm
17:17 -8.1 °C -12.3 °C 34428.8 hPa ESE 15 km/h 15 km/h 61 % 0 mm
17:22 -8.2 °C -12.3 °C 34428.8 hPa ESE 17.9 km/h 17.9 km/h 62 % 0 mm
17:27 -8.3 °C -12.3 °C 34428.8 hPa ESE 9 km/h 9 km/h 62 % 0 mm
17:32 -8.3 °C -12.2 °C 34428.8 hPa ESE 11.9 km/h 11.9 km/h 63 % 0 mm
17:42 -8.3 °C -12.3 °C 34462.7 hPa ESE 11.9 km/h 11.9 km/h 63 % 0 mm
17:47 -8.3 °C -12.3 °C 34462.7 hPa ENE 6 km/h 6 km/h 63 % 0 mm
17:52 -8.4 °C -12.2 °C 34462.7 hPa East 9.8 km/h 9.8 km/h 64 % 0 mm
17:57 -8.4 °C -12.2 °C 34462.7 hPa ESE 7.6 km/h 7.6 km/h 64 % 0 mm
18:02 -8.4 °C -12.2 °C 34462.7 hPa ESE 9 km/h 9 km/h 64 % 0 mm
18:07 -8.4 °C -12.3 °C 34462.7 hPa East 9 km/h 9 km/h 64 % 0 mm
18:12 -8.4 °C -12.3 °C 34462.7 hPa ESE 11.9 km/h 11.9 km/h 64 % 0 mm
18:15 -10.2 °C -12.4 °C 34533.8 hPa Calm   2.6 km/h 76 % 0 mm
18:17 -8.4 °C -12.3 °C 34462.7 hPa ENE 6 km/h 6 km/h 64 % 0 mm
18:22 -8.5 °C -12.3 °C 34462.7 hPa ENE 9 km/h 9 km/h 64 % 0 mm
18:25 -10.2 °C -12.4 °C 34533.8 hPa Calm   5.1 km/h 77 % 0 mm
18:27 -8.5 °C -12.3 °C 34462.7 hPa ENE 6.8 km/h 6.8 km/h 64 % 0 mm
18:32 -8.5 °C -12.3 °C 34462.7 hPa ENE 9 km/h 9 km/h 64 % 0 mm
18:35 -10.2 °C -12.4 °C 34533.8 hPa NNE 5.1 km/h 5.1 km/h 77 % 0 mm
18:37 -8.6 °C -12.3 °C 34462.7 hPa East 6.8 km/h 6.8 km/h 64 % 0 mm
18:42 -8.6 °C -12.3 °C 34462.7 hPa ENE 9 km/h 9 km/h 64 % 0 mm
18:45 -10.2 °C -12.4 °C 34533.8 hPa NNE 5.1 km/h 7.7 km/h 77 % 0 mm
18:47 -8.6 °C -12.2 °C 34462.7 hPa NE 6 km/h 6 km/h 65 % 0 mm
18:52 -8.6 °C -12.2 °C 34462.7 hPa East 11.9 km/h 11.9 km/h 65 % 0 mm
18:55 -10.3 °C -12.7 °C 34533.8 hPa NE 2.6 km/h 7.7 km/h 75 % 0 mm
18:57 -8.6 °C -12.2 °C 34462.7 hPa ENE 6 km/h 6 km/h 65 % 0 mm
19:02 -8.6 °C -12.2 °C 34462.7 hPa ENE 3.1 km/h 3.1 km/h 65 % 0 mm
19:05 -10.3 °C -12.7 °C 34533.8 hPa Calm   5.1 km/h 75 % 0 mm
19:07 -8.6 °C -12.2 °C 34496.6 hPa ENE 3.1 km/h 3.1 km/h 65 % 0 mm
19:12 -8.6 °C -12.2 °C 34496.6 hPa Calm     65 % 0 mm
19:15 -10.3 °C -12.7 °C 34533.8 hPa NNE 2.6 km/h 7.7 km/h 75 % 0 mm
19:17 -8.6 °C -12.3 °C 34496.6 hPa ESE 3.1 km/h   65 % 0 mm
19:22 -8.6 °C -12.2 °C 34496.6 hPa Calm     66 % 0 mm
19:25 -10.4 °C -12.8 °C 34533.8 hPa NNE 2.6 km/h 5.1 km/h 75 % 0 mm
19:27 -8.7 °C -12.2 °C 34496.6 hPa Calm     66 % 0 mm
19:32 -8.7 °C -12.3 °C 34496.6 hPa Calm     66 % 0 mm
19:35 -10.4 °C -12.8 °C 34533.8 hPa Calm   5.1 km/h 75 % 0 mm
19:37 -8.8 °C -12.3 °C 34496.6 hPa Calm     66 % 0 mm
19:42 -8.8 °C -12.4 °C 34496.6 hPa Calm     66 % 0 mm
19:45 -10.4 °C -12.8 °C 34533.8 hPa NE 2.6 km/h 5.1 km/h 75 % 0 mm
19:47 -8.8 °C -12.3 °C 34496.6 hPa Calm     67 % 0 mm
19:52 -8.9 °C -12.3 °C 34496.6 hPa Calm     67 % 0 mm
19:55 -10.4 °C -12.8 °C 34533.8 hPa Calm   5.1 km/h 75 % 0 mm
19:57 -8.9 °C -12.3 °C 34496.6 hPa Calm     67 % 0 mm
20:02 -8.9 °C -12.3 °C 34496.6 hPa Calm     67 % 0 mm
20:05 -10.4 °C -12.8 °C 34533.8 hPa West 2.6 km/h 2.6 km/h 75 % 0 mm
20:07 -9 °C -12.3 °C 34496.6 hPa Calm     68 % 0 mm
20:12 -9.1 °C -12.3 °C 34496.6 hPa South 2.3 km/h   68 % 0 mm
20:15 -10.4 °C -12.8 °C 34533.8 hPa Calm   2.6 km/h 75 % 0 mm
20:17 -9.1 °C -12.4 °C 34496.6 hPa Calm     68 % 0 mm
20:22 -9.2 °C -12.6 °C 34496.6 hPa WNW 5.6 km/h 5.6 km/h 67 % 0 mm
20:25 -10.3 °C -12.6 °C 34533.8 hPa Calm   5.1 km/h 76 % 0 mm
20:27 -9.2 °C -12.4 °C 34496.6 hPa WNW 3.1 km/h 3.1 km/h 68 % 0 mm
20:32 -9.2 °C -12.5 °C 34496.6 hPa Calm     68 % 0 mm
20:35 -10.3 °C -12.6 °C 34533.8 hPa Calm   5.1 km/h 77 % 0 mm
20:37 -9.2 °C -12.5 °C 34533.8 hPa WNW 3.7 km/h 3.7 km/h 68 % 0 mm
20:42 -9.3 °C -12.4 °C 34533.8 hPa WNW 4.2 km/h 4.2 km/h 69 % 0 mm
20:45 -10.3 °C -12.4 °C 34533.8 hPa Calm     78 % 0 mm
20:47 -9.3 °C -12.4 °C 34533.8 hPa West 3.1 km/h 3.1 km/h 69 % 0 mm
20:52 -9.3 °C -12.4 °C 34533.8 hPa West 3.1 km/h   69 % 0 mm
20:55 -10.4 °C -12.4 °C 34533.8 hPa South 2.6 km/h 5.1 km/h 78 % 0 mm
20:57 -9.4 °C -12.6 °C 34533.8 hPa Calm     69 % 0 mm
21:02 -9.4 °C -12.6 °C 34533.8 hPa Calm     69 % 0 mm
21:05 -10.4 °C -12.4 °C 34533.8 hPa Calm   2.6 km/h 78 % 0 mm
21:07 -9.4 °C -12.6 °C 34533.8 hPa WNW 3.7 km/h 3.7 km/h 69 % 0 mm
21:12 -9.4 °C -12.6 °C 34533.8 hPa Calm     69 % 0 mm
21:15 -10.4 °C -12.6 °C 34533.8 hPa Calm   2.6 km/h 78 % 0 mm
21:17 -9.4 °C -12.6 °C 34533.8 hPa WNW 3.7 km/h   69 % 0 mm
21:22 -9.4 °C -12.6 °C 34533.8 hPa WNW 3.7 km/h   69 % 0 mm
21:25 -10.5 °C -12.6 °C 34533.8 hPa Calm   2.6 km/h 78 % 0 mm
21:27 -9.4 °C -12.6 °C 34533.8 hPa NW 3.1 km/h   69 % 0 mm
21:32 -9.4 °C -12.6 °C 34533.8 hPa NW 3.7 km/h   69 % 0 mm
21:35 -10.5 °C -12.6 °C 34533.8 hPa Calm   5.1 km/h 78 % 0 mm
21:37 -9.4 °C -12.4 °C 34533.8 hPa NW 2.3 km/h   70 % 0 mm
21:42 -9.4 °C -12.4 °C 34533.8 hPa NW 2.3 km/h   70 % 0 mm
21:45 -10.5 °C -12.6 °C 34533.8 hPa ENE 2.6 km/h 5.1 km/h 78 % 0 mm
21:47 -9.4 °C -12.4 °C 34533.8 hPa NW 3.1 km/h 3.1 km/h 70 % 0 mm
21:52 -9.5 °C -12.4 °C 34496.6 hPa Calm     71 % 0 mm
21:55 -10.5 °C -12.6 °C 34533.8 hPa Calm   2.6 km/h 78 % 0 mm
21:57 -9.6 °C -12.4 °C 34496.6 hPa ENE 3.7 km/h 3.7 km/h 71 % 0 mm
22:02 -9.6 °C -12.4 °C 34496.6 hPa ENE 3.1 km/h   71 % 0 mm
22:05 -10.5 °C -12.4 °C 34533.8 hPa Calm   2.6 km/h 79 % 0 mm
22:07 -9.5 °C -12.3 °C 34533.8 hPa Calm     72 % 0 mm
22:12 -9.6 °C -12.3 °C 34533.8 hPa ENE 6 km/h 6 km/h 72 % 0 mm
22:15 -10.6 °C -12.6 °C 34533.8 hPa Calm   2.6 km/h 78 % 0 mm
22:17 -9.6 °C -12.4 °C 34533.8 hPa ENE 6 km/h 6 km/h 72 % 0 mm
22:22 -9.6 °C -12.4 °C 34533.8 hPa ENE 3.1 km/h   72 % 0 mm
22:25 -10.6 °C -12.6 °C 34567.7 hPa Calm   5.1 km/h 78 % 0 mm
22:27 -9.7 °C -12.3 °C 34533.8 hPa ENE 3.1 km/h   73 % 0 mm
22:32 -9.6 °C -12.3 °C 34533.8 hPa ENE 3.7 km/h   73 % 0 mm
22:35 -10.6 °C -12.6 °C 34567.7 hPa Calm     78 % 0 mm
22:37 -9.7 °C -12.3 °C 34533.8 hPa ENE 3.7 km/h 3.7 km/h 73 % 0 mm
22:42 -9.7 °C -12.4 °C 34533.8 hPa Calm     73 % 0 mm
22:45 -10.5 °C -12.6 °C 34567.7 hPa NNE 2.6 km/h 5.1 km/h 78 % 0 mm
22:47 -9.8 °C -12.4 °C 34533.8 hPa NE 3.7 km/h 3.7 km/h 73 % 0 mm
22:52 -9.8 °C -12.4 °C 34533.8 hPa NE 3.1 km/h   74 % 0 mm
22:55 -10.6 °C -12.6 °C 34567.7 hPa Calm   5.1 km/h 78 % 0 mm
23:05 -10.6 °C -12.6 °C 34567.7 hPa Calm     78 % 0 mm
23:07 -9.9 °C -12.4 °C 34533.8 hPa NE 3.1 km/h   74 % 0 mm
23:12 -10 °C -12.6 °C 34533.8 hPa Calm     74 % 0 mm
23:15 -10.6 °C -12.8 °C 34601.5 hPa West 5.1 km/h 5.1 km/h 76 % 0 mm
23:17 -10 °C -12.6 °C 34533.8 hPa Calm     74 % 0 mm
23:22 -10 °C -12.6 °C 34533.8 hPa Calm     74 % 0 mm
23:25 -10.4 °C -12.9 °C 34567.7 hPa WSW 7.7 km/h 7.7 km/h 74 % 0 mm
23:27 -10.1 °C -12.4 °C 34533.8 hPa Calm     75 % 0 mm
23:32 -10.1 °C -12.4 °C 34533.8 hPa ENE 6 km/h 6 km/h 75 % 0 mm
23:35 -10.4 °C -13 °C 34567.7 hPa WSW 2.6 km/h 10.3 km/h 73 % 0 mm
23:37 -10.1 °C -12.4 °C 34533.8 hPa ENE 3.1 km/h 3.1 km/h 75 % 0 mm
23:42 -10.1 °C -12.4 °C 34533.8 hPa Calm     75 % 0 mm
23:45 -10.4 °C -13.3 °C 34601.5 hPa WSW 2.6 km/h 2.6 km/h 71 % 0 mm
23:47 -10.1 °C -12.4 °C 34533.8 hPa ENE 3.1 km/h   75 % 0 mm
23:52 -10.1 °C -12.4 °C 34533.8 hPa Calm     75 % 0 mm
23:55 -10.4 °C -13.4 °C 34601.5 hPa NW 7.7 km/h 10.3 km/h 70 % 0 mm
23:57 -10.1 °C -12.6 °C 34533.8 hPa Calm     75 % 0 mm
Meteo Sesrovires
Elogis d' Weather Underground - 3.75 mb

Guio original per  Jim McMurry - jmcmurry@mwt.net Adaptat per a la plantilla per  Wim van der Kuil - Leuven-Template.eu

Trobareu la nostra informacio del temps tambe a:

Weather Underground

AWEKAS